CYDP/YDP METAR and TAF weather

Enter ICAO airport designator
Station Type Date Time Source
CYDP METAR 2021/10/24 21:00 UTC NOAA

CYDP 242100Z 07009KT 15SM FEW022 FEW110 02/M01 A2980 RMK CU1AC1 CU TR AC TR SLP094


Station Type Date Time Source
CYDP Decoded METAR 2021/10/24 21:00 UTC NOAA

Nain, Nfld, Canada (CYDP) 56-33N 061-41W 7M
Oct 24, 2021 - 05:00 PM EDT / 2021.10.24 2100 UTC
Wind: from the ENE (070 degrees) at 10 MPH (9 KT):0
Visibility: 15 mile(s):0
Sky conditions: mostly clear
Temperature: 35 F (2 C)
Windchill: 26 F (-3 C):1
Dew Point: 30 F (-1 C)
Relative Humidity: 80%
Pressure (altimeter): 29.8 in. Hg (1009 hPa)
ob: CYDP 242100Z 07009KT 15SM FEW022 FEW110 02/M01 A2980 RMK CU1AC1 CU TR AC TR SLP094
cycle: 21

Station Type Date Time Source
CYDP TAF 2021/10/24 20:00 UTC NOAA

TAF CYDP 241938Z 2420/2423 03010KT P6SM FEW040
RMK NXT FCST WILL BE ISSUED AT 250945Z

Example: see airport list